Time;durP1;ratioP1;P1;durP2;ratioP2;P2;SDS_P1;SDS_P2;PMS_P1;PMS_P2;Temp;Humidity;BMP_temperature;BMP_pressure;BME280_temperature;BME280_humidity;BME280_pressure;Samples;Min_cycle;Max_cycle;Signal;HPM_P1;HPM_P2
2023/03/03 00:02:26;;;;;;;12.23;9.45;;;4.50;99.90;;;;;;4936288;29;20482;-90
2023/03/03 00:04:55;;;;;;;11.95;8.00;;;4.40;99.90;;;;;;4935805;29;20035;-91
2023/03/03 00:07:26;;;;;;;10.23;8.52;;;4.50;99.90;;;;;;4935655;29;20031;-91
2023/03/03 00:09:58;;;;;;;11.90;8.18;;;4.90;99.90;;;;;;4935754;29;20039;-90
2023/03/03 00:12:28;;;;;;;13.88;8.80;;;4.40;99.90;;;;;;4935943;29;20024;-90
2023/03/03 00:15:14;;;;;;;8.73;7.55;;;5.00;99.90;;;;;;4935634;29;20036;-89
2023/03/03 00:17:39;;;;;;;9.18;7.05;;;4.50;99.90;;;;;;4935674;29;20119;-89
2023/03/03 00:20:36;;;;;;;10.90;7.53;;;4.50;99.90;;;;;;4936086;29;20110;-90
2023/03/03 00:23:20;;;;;;;8.45;7.20;;;4.40;99.90;;;;;;4936116;29;20027;-89
2023/03/03 00:25:47;;;;;;;17.48;7.20;;;4.30;99.90;;;;;;4935694;29;20028;-89
2023/03/03 00:28:35;;;;;;;12.27;7.68;;;4.30;99.90;;;;;;4935198;29;20036;-89
2023/03/03 00:31:05;;;;;;;11.40;7.25;;;4.40;99.90;;;;;;4935842;29;20027;-92
2023/03/03 00:33:32;;;;;;;;;;;4.60;99.90;;;;;;4936632;29;20023;-89
2023/03/03 00:36:21;;;;;;;8.63;7.32;;;4.30;99.90;;;;;;4935774;29;19914;-89
2023/03/03 00:38:48;;;;;;;12.77;6.97;;;4.30;99.90;;;;;;4936083;29;20031;-90
2023/03/03 00:41:22;;;;;;;12.65;6.57;;;4.30;99.90;;;;;;4935835;29;20463;-89
2023/03/03 00:43:48;;;;;;;11.85;7.35;;;4.20;99.90;;;;;;4936203;29;20052;-89
2023/03/03 00:46:19;;;;;;;8.50;6.47;;;4.20;99.90;;;;;;4936109;29;20063;-89
2023/03/03 00:48:45;;;;;;;10.75;6.68;;;4.10;99.90;;;;;;4935837;29;20036;-90
2023/03/03 00:51:26;;;;;;;9.27;7.25;;;4.00;99.90;;;;;;4937148;29;20098;-89
2023/03/03 00:53:53;;;;;;;9.23;7.43;;;4.00;99.90;;;;;;4939021;29;20055;-88
2023/03/03 00:56:18;;;;;;;12.10;8.77;;;4.00;99.90;;;;;;4939277;29;20028;-89
2023/03/03 00:58:46;;;;;;;12.57;8.40;;;4.00;99.90;;;;;;4938824;29;20345;-89
2023/03/03 01:01:16;;;;;;;22.10;7.80;;;4.80;99.90;;;;;;4938907;28;20039;-90
2023/03/03 01:03:45;;;;;;;12.60;7.97;;;3.60;99.90;;;;;;4938479;29;20027;-89
2023/03/03 01:06:16;;;;;;;14.45;9.38;;;4.40;99.90;;;;;;4938713;29;20035;-91
2023/03/03 01:08:49;;;;;;;14.57;8.57;;;3.90;99.90;;;;;;4938850;29;20031;-89
2023/03/03 01:11:24;;;;;;;15.10;9.07;;;4.50;99.90;;;;;;4938810;29;20031;-91
2023/03/03 01:13:51;;;;;;;10.43;8.38;;;4.00;99.90;;;;;;4938734;29;20027;-91
2023/03/03 01:16:18;;;;;;;15.68;9.00;;;3.80;99.90;;;;;;4938943;29;20051;-91
2023/03/03 01:18:49;;;;;;;13.95;9.18;;;4.40;99.90;;;;;;4938730;29;20083;-91
2023/03/03 01:21:18;;;;;;;18.33;9.35;;;4.60;99.90;;;;;;4938761;29;20035;-88
2023/03/03 01:23:50;;;;;;;16.13;9.55;;;4.80;99.90;;;;;;4938513;29;20031;-92
2023/03/03 01:26:19;;;;;;;17.77;9.32;;;3.80;99.90;;;;;;4938428;29;20082;-90
2023/03/03 01:28:44;;;;;;;15.57;9.18;;;3.80;99.90;;;;;;4937749;29;20083;-91
2023/03/03 01:31:11;;;;;;;12.75;9.57;;;3.70;99.90;;;;;;4939043;29;20039;-89
2023/03/03 01:33:45;;;;;;;13.82;9.55;;;3.70;99.90;;;;;;4939191;29;20055;-91
2023/03/03 01:36:26;;;;;;;13.73;9.85;;;3.80;99.90;;;;;;4938846;29;20058;-90
2023/03/03 01:38:51;;;;;;;17.13;10.45;;;3.90;99.90;;;;;;4937793;29;20020;-91
2023/03/03 01:41:20;;;;;;;17.95;11.13;;;3.80;99.90;;;;;;4938042;29;20483;-91
2023/03/03 01:43:59;;;;;;;16.52;9.70;;;4.90;99.90;;;;;;4938433;29;20020;-91
2023/03/03 01:46:24;;;;;;;16.80;10.13;;;3.70;99.90;;;;;;4938669;29;20031;-91
2023/03/03 01:49:02;;;;;;;20.52;11.10;;;4.50;99.90;;;;;;4938169;29;20391;-91
2023/03/03 01:51:58;;;;;;;15.88;8.80;;;3.80;99.90;;;;;;4938142;29;20032;-91
2023/03/03 01:54:29;;;;;;;15.13;9.90;;;3.80;99.90;;;;;;4937842;29;20043;-91
2023/03/03 01:56:59;;;;;;;21.70;10.55;;;3.80;99.90;;;;;;4937763;29;20119;-91
2023/03/03 01:59:31;;;;;;;14.52;10.20;;;3.80;99.90;;;;;;4938170;29;20114;-91
2023/03/03 02:01:57;;;;;;;15.13;10.07;;;3.90;99.90;;;;;;4918546;29;20039;-92
2023/03/03 02:04:25;;;;;;;15.45;9.20;;;3.90;99.90;;;;;;4918607;29;20028;-91
2023/03/03 02:06:56;;;;;;;16.98;9.10;;;3.90;99.90;;;;;;4918443;29;20042;-91
2023/03/03 02:09:55;;;;;;;16.35;10.05;;;4.00;99.90;;;;;;4918498;29;20040;-92
2023/03/03 02:12:25;;;;;;;20.90;10.27;;;3.90;99.90;;;;;;4919007;29;20024;-91
2023/03/03 02:14:53;;;;;;;15.45;9.23;;;4.00;99.90;;;;;;4918327;29;20033;-92
2023/03/03 02:17:34;;;;;;;13.25;9.20;;;4.00;99.90;;;;;;4919784;29;20472;-93
2023/03/03 02:20:22;;;;;;;17.13;10.18;;;4.00;99.90;;;;;;4918198;29;20475;-90
2023/03/03 02:23:29;;;;;;;12.82;8.65;;;4.00;99.90;;;;;;4918213;29;20103;-91
2023/03/03 02:26:14;;;;;;;18.67;10.52;;;3.90;99.90;;;;;;4936607;29;20107;-91
2023/03/03 02:28:40;;;;;;;13.40;9.23;;;3.90;99.90;;;;;;4936415;29;20031;-91
2023/03/03 02:31:11;;;;;;;13.98;9.65;;;3.70;99.90;;;;;;4937353;29;20034;-91
2023/03/03 02:33:41;;;;;;;16.33;10.32;;;3.80;99.90;;;;;;4937108;29;20547;-91
2023/03/03 02:36:12;;;;;;;18.80;10.48;;;3.80;99.90;;;;;;4937498;29;20132;-90
2023/03/03 02:38:52;;;;;;;13.10;10.25;;;3.80;99.90;;;;;;4937265;29;20036;-91
2023/03/03 02:41:25;;;;;;;;;;;3.80;99.90;;;;;;4937747;29;20038;-91
2023/03/03 02:44:08;;;;;;;17.15;10.23;;;3.80;99.90;;;;;;4937238;29;19915;-91
2023/03/03 02:46:39;;;;;;;16.20;10.98;;;3.70;99.90;;;;;;4936668;29;20036;-91
2023/03/03 02:49:07;;;;;;;16.92;10.25;;;3.80;99.90;;;;;;4936945;29;20409;-91
2023/03/03 02:51:34;;;;;;;19.48;11.82;;;3.70;99.90;;;;;;4936679;29;20020;-91
2023/03/03 02:54:05;;;;;;;17.67;11.77;;;3.70;99.90;;;;;;4936707;29;20075;-91
2023/03/03 02:56:37;;;;;;;16.10;11.02;;;3.80;99.90;;;;;;4936784;29;20027;-91
2023/03/03 02:59:06;;;;;;;15.45;11.25;;;3.70;99.90;;;;;;4936801;29;20414;-91
2023/03/03 03:01:38;;;;;;;19.75;11.75;;;4.20;99.90;;;;;;4936552;29;20502;-92
2023/03/03 03:04:13;;;;;;;20.80;11.07;;;3.80;99.90;;;;;;4936578;29;20119;-91
2023/03/03 03:06:39;;;;;;;16.98;11.43;;;3.60;99.90;;;;;;4936852;29;20054;-91
2023/03/03 03:09:09;;;;;;;18.02;11.30;;;4.10;99.90;;;;;;4936709;29;20391;-89
2023/03/03 03:11:35;;;;;;;;;;;3.50;99.90;;;;;;4937027;29;20114;-90
2023/03/03 03:14:12;;;;;;;19.10;11.13;;;3.40;99.90;;;;;;4936379;29;19945;-91
2023/03/03 03:16:41;;;;;;;19.45;11.73;;;3.50;99.90;;;;;;4936798;29;20094;-91
2023/03/03 03:19:13;;;;;;;17.80;11.60;;;3.50;99.90;;;;;;4936792;29;20471;-91
2023/03/03 03:21:42;;;;;;;20.95;13.60;;;3.40;99.90;;;;;;4936830;29;20032;-91
2023/03/03 03:24:14;;;;;;;20.98;13.20;;;3.40;99.90;;;;;;4936892;29;20107;-91
2023/03/03 03:26:47;;;;;;;22.75;14.18;;;4.10;99.90;;;;;;4936572;29;20391;-90
2023/03/03 03:29:15;;;;;;;19.85;12.55;;;3.40;99.90;;;;;;4936906;29;20364;-91
2023/03/03 03:31:44;;;;;;;19.63;12.48;;;3.50;99.90;;;;;;4935836;29;20024;-91
2023/03/03 03:34:15;;;;;;;26.55;12.68;;;3.50;99.90;;;;;;4936692;29;20091;-91
2023/03/03 03:36:47;;;;;;;21.92;12.13;;;3.50;99.90;;;;;;4936271;29;20030;-90
2023/03/03 03:39:19;;;;;;;25.98;12.80;;;4.20;99.90;;;;;;4935776;29;20603;-90
2023/03/03 03:41:48;;;;;;;22.55;11.85;;;3.50;99.90;;;;;;4936403;29;20055;-90
2023/03/03 03:44:14;;;;;;;17.83;12.00;;;3.70;99.90;;;;;;4936321;29;20094;-90
2023/03/03 03:46:39;;;;;;;23.48;12.93;;;3.50;99.90;;;;;;4936247;29;20555;-92
2023/03/03 03:49:05;;;;;;;17.95;11.05;;;3.50;99.90;;;;;;4936507;29;20040;-91
2023/03/03 03:51:37;;;;;;;17.52;11.60;;;3.60;99.90;;;;;;4924040;29;20055;-91
2023/03/03 03:54:05;;;;;;;15.10;10.55;;;3.50;99.90;;;;;;4915803;29;20052;-90
2023/03/03 03:56:36;;;;;;;21.85;12.60;;;3.80;99.90;;;;;;4936017;29;20159;-92
2023/03/03 03:59:09;;;;;;;18.95;11.65;;;4.30;99.90;;;;;;4936227;29;20024;-92
2023/03/03 04:01:35;;;;;;;19.52;12.40;;;4.00;99.90;;;;;;4936459;29;20471;-89
2023/03/03 04:04:01;;;;;;;19.67;11.80;;;3.50;99.90;;;;;;4936198;29;20032;-91
2023/03/03 04:06:27;;;;;;;21.02;12.20;;;3.50;99.90;;;;;;4936325;29;20107;-91
2023/03/03 04:08:54;;;;;;;18.58;12.38;;;3.50;99.90;;;;;;4935966;29;20064;-91
2023/03/03 04:11:20;;;;;;;16.77;10.57;;;3.50;99.90;;;;;;4935942;29;20427;-91
2023/03/03 04:13:45;;;;;;;20.63;11.07;;;3.50;99.90;;;;;;4936199;29;20031;-90
2023/03/03 04:16:11;;;;;;;20.00;11.98;;;3.50;99.90;;;;;;4936122;29;20023;-91
2023/03/03 04:18:36;;;;;;;17.85;11.32;;;3.50;99.90;;;;;;4936460;29;20027;-91
2023/03/03 04:21:02;;;;;;;16.42;11.25;;;3.50;99.90;;;;;;4936130;29;20038;-91
2023/03/03 04:24:09;;;;;;;18.67;11.65;;;3.50;99.90;;;;;;4936766;29;20471;-92
2023/03/03 04:26:35;;;;;;;19.25;10.55;;;3.10;99.90;;;;;;4937113;29;20023;-91
2023/03/03 04:29:04;;;;;;;19.23;11.77;;;4.20;99.90;;;;;;4939530;29;20031;-91
2023/03/03 04:31:35;;;;;;;22.52;12.75;;;3.90;99.90;;;;;;4939642;29;20043;-91
2023/03/03 04:34:09;;;;;;;19.30;12.82;;;3.50;99.90;;;;;;4939486;29;20035;-91
2023/03/03 04:36:35;;;;;;;21.08;12.02;;;4.10;99.90;;;;;;4939685;29;20459;-91
2023/03/03 04:39:08;;;;;;;22.80;12.23;;;3.50;99.90;;;;;;4939573;29;20031;-90
2023/03/03 04:41:37;;;;;;;18.90;11.38;;;4.80;99.90;;;;;;4939161;29;20136;-90
2023/03/03 04:44:11;;;;;;;16.77;10.68;;;4.00;99.90;;;;;;4939533;29;20114;-90
2023/03/03 04:46:43;;;;;;;21.40;11.30;;;4.60;99.90;;;;;;4938189;29;20087;-91
2023/03/03 04:49:15;;;;;;;20.73;11.07;;;4.10;99.90;;;;;;4939110;29;20050;-91
2023/03/03 04:51:43;;;;;;;18.95;10.02;;;4.00;99.90;;;;;;4939426;29;20028;-91
2023/03/03 04:54:15;;;;;;;17.02;9.80;;;4.30;99.90;;;;;;4939275;29;20135;-91
2023/03/03 04:56:50;;;;;;;18.25;10.73;;;4.20;99.90;;;;;;4939240;29;20391;-91
2023/03/03 04:59:15;;;;;;;16.90;10.50;;;3.60;99.90;;;;;;4939038;29;20103;-91
2023/03/03 05:01:49;;;;;;;22.67;10.68;;;4.40;99.90;;;;;;4939024;29;20107;-91
2023/03/03 05:04:18;;;;;;;19.95;10.95;;;4.10;99.90;;;;;;4939067;29;20023;-91
2023/03/03 05:06:47;;;;;;;22.58;12.23;;;4.10;99.90;;;;;;4939085;29;20112;-91
2023/03/03 05:09:18;;;;;;;22.77;12.05;;;4.10;99.90;;;;;;4938402;29;20063;-91
2023/03/03 05:11:51;;;;;;;20.42;11.20;;;4.20;99.90;;;;;;4939119;29;20028;-92
2023/03/03 05:14:20;;;;;;;24.10;12.63;;;4.30;99.90;;;;;;4939006;29;20024;-90
2023/03/03 05:16:51;;;;;;;24.75;12.55;;;4.20;99.90;;;;;;4938579;29;20083;-91
2023/03/03 05:19:20;;;;;;;25.17;12.93;;;4.80;99.90;;;;;;4938433;29;20059;-91
2023/03/03 05:21:51;;;;;;;26.75;13.23;;;3.60;99.90;;;;;;4938580;29;20090;-92
2023/03/03 05:24:24;;;;;;;24.73;13.18;;;3.60;99.90;;;;;;4938214;29;20439;-90
2023/03/03 05:26:53;;;;;;;27.77;13.93;;;4.30;99.90;;;;;;4938948;29;20122;-91
2023/03/03 05:29:25;;;;;;;33.15;14.93;;;3.90;99.90;;;;;;4938498;29;20039;-91
2023/03/03 05:31:53;;;;;;;30.80;14.57;;;4.40;99.90;;;;;;4938386;29;20027;-91
2023/03/03 05:34:26;;;;;;;25.83;14.05;;;3.80;99.90;;;;;;4938645;29;20024;-91
2023/03/03 05:36:54;;;;;;;30.52;16.73;;;3.70;99.90;;;;;;4938038;29;20063;-91
2023/03/03 05:39:25;;;;;;;30.55;14.80;;;3.40;99.90;;;;;;4939034;29;20024;-91
2023/03/03 05:41:59;;;;;;;29.73;15.57;;;4.70;99.90;;;;;;4938114;29;20054;-91
2023/03/03 05:44:27;;;;;;;27.67;15.27;;;3.60;99.90;;;;;;4937906;29;20024;-91
2023/03/03 05:47:01;;;;;;;32.58;16.42;;;4.10;99.90;;;;;;4938296;29;20028;-90
2023/03/03 05:49:27;;;;;;;34.17;14.88;;;3.60;99.90;;;;;;4938020;29;20039;-91
2023/03/03 05:51:59;;;;;;;34.13;16.27;;;4.20;99.90;;;;;;4938049;29;20024;-91
2023/03/03 05:54:34;;;;;;;29.85;15.82;;;4.40;99.90;;;;;;4937909;29;20044;-90
2023/03/03 05:57:00;;;;;;;30.13;15.40;;;3.70;99.90;;;;;;4938114;29;20035;-92
2023/03/03 05:59:32;;;;;;;33.53;16.25;;;4.60;99.90;;;;;;4937519;29;20024;-90
2023/03/03 06:02:00;;;;;;;29.90;14.98;;;3.80;99.90;;;;;;4938031;29;20036;-91
2023/03/03 06:04:32;;;;;;;32.42;16.13;;;3.70;99.90;;;;;;4938126;29;20047;-91
2023/03/03 06:07:05;;;;;;;34.58;16.33;;;4.20;99.90;;;;;;4937592;29;20091;-91
2023/03/03 06:09:34;;;;;;;35.47;17.05;;;3.80;99.90;;;;;;4938175;29;20044;-91
2023/03/03 06:12:02;;;;;;;31.63;16.33;;;4.70;99.90;;;;;;4937309;29;20020;-91
2023/03/03 06:14:33;;;;;;;33.05;16.15;;;4.50;99.90;;;;;;4937578;29;20054;-91
2023/03/03 06:17:05;;;;;;;33.50;15.63;;;3.90;99.90;;;;;;4937335;29;20527;-91
2023/03/03 06:19:38;;;;;;;33.90;16.48;;;3.90;99.90;;;;;;4937189;29;20032;-91
2023/03/03 06:22:07;;;;;;;27.70;15.80;;;3.90;99.90;;;;;;4937427;29;20118;-91
2023/03/03 06:24:36;;;;;;;30.63;15.95;;;3.80;99.90;;;;;;4937419;29;20045;-92
2023/03/03 06:27:08;;;;;;;29.17;16.17;;;4.00;99.90;;;;;;4937397;29;20032;-93
2023/03/03 06:29:37;;;;;;;29.48;15.40;;;4.40;99.90;;;;;;4937671;29;20040;-91
2023/03/03 06:32:09;;;;;;;33.58;18.10;;;3.90;99.90;;;;;;4953414;29;20035;-95
2023/03/03 06:34:42;;;;;;;33.50;15.85;;;4.70;99.90;;;;;;4956873;28;20497;-91
2023/03/03 06:37:10;;;;;;;33.80;16.30;;;4.30;99.90;;;;;;4957206;28;20031;-92
2023/03/03 06:39:39;;;;;;;40.15;16.75;;;4.00;99.90;;;;;;4945060;29;20024;-91
2023/03/03 06:42:10;;;;;;;35.67;17.55;;;4.10;99.90;;;;;;4939916;29;20027;-91
2023/03/03 06:45:23;;;;;;;33.53;16.42;;;5.20;99.90;;;;;;4936860;29;20054;-92
2023/03/03 06:47:48;;;;;;;32.25;15.25;;;3.60;99.90;;;;;;4934717;29;20070;-91
2023/03/03 06:50:19;;;;;;;34.25;15.85;;;4.70;99.90;;;;;;4936183;29;20040;-91
2023/03/03 06:52:49;;;;;;;30.67;16.67;;;4.10;99.90;;;;;;4942983;29;20032;-89
2023/03/03 06:55:22;;;;;;;27.35;14.38;;;4.50;99.90;;;;;;4932580;29;20051;-91
2023/03/03 06:57:51;;;;;;;28.88;13.82;;;4.10;99.90;;;;;;4942643;29;20030;-92
2023/03/03 07:00:25;;;;;;;24.45;14.35;;;4.60;99.90;;;;;;4938163;29;20491;-91
2023/03/03 07:03:35;;;;;;;27.40;13.93;;;4.20;99.90;;;;;;4947965;28;20027;-93
2023/03/03 07:06:31;;;;;;;29.83;15.88;;;4.20;99.90;;;;;;4861615;29;20047;-93
2023/03/03 07:08:57;;;;;;;23.83;12.68;;;4.20;99.90;;;;;;4869475;29;20136;-91
2023/03/03 07:11:28;;;;;;;27.92;12.90;;;5.50;99.90;;;;;;4946742;29;20058;-91
2023/03/03 07:13:54;;;;;;;26.10;14.02;;;4.70;99.90;;;;;;4925942;29;20031;-92
2023/03/03 07:16:30;;;;;;;25.52;13.57;;;4.30;99.90;;;;;;4936086;29;20078;-92
2023/03/03 07:19:00;;;;;;;22.52;14.13;;;3.80;99.90;;;;;;4932513;29;20027;-91
2023/03/03 07:21:35;;;;;;;29.63;14.23;;;5.60;99.90;;;;;;4936588;29;20492;-92
2023/03/03 07:24:20;;;;;;;28.45;14.63;;;4.30;99.90;;;;;;4936773;29;20028;-94
2023/03/03 07:26:45;;;;;;;32.30;15.52;;;4.30;99.90;;;;;;4936203;29;20028;-92
2023/03/03 07:29:26;;;;;;;30.02;15.52;;;4.30;99.90;;;;;;4936364;29;20165;-92
2023/03/03 07:32:03;;;;;;;31.90;15.35;;;4.20;99.90;;;;;;4934497;29;20020;-90
2023/03/03 07:34:42;;;;;;;32.42;16.08;;;4.20;99.90;;;;;;4937081;29;20036;-91
2023/03/03 07:37:24;;;;;;;36.70;17.27;;;4.20;99.90;;;;;;4936999;29;20023;-92
2023/03/03 07:39:49;;;;;;;32.58;16.95;;;4.30;99.90;;;;;;4937186;29;20059;-91
2023/03/03 07:42:43;;;;;;;31.83;15.43;;;4.30;99.90;;;;;;4936745;29;20027;-92
2023/03/03 07:45:23;;;;;;;34.17;16.00;;;4.40;99.90;;;;;;4938416;29;20027;-93
2023/03/03 07:47:49;;;;;;;;;;;4.30;99.90;;;;;;4930336;29;20027;-91
2023/03/03 07:50:19;;;;;;;31.77;14.93;;;4.40;99.90;;;;;;4936601;29;19933;-92
2023/03/03 07:52:55;;;;;;;32.03;14.87;;;4.60;99.90;;;;;;4948567;29;20106;-92
2023/03/03 07:55:25;;;;;;;30.90;14.93;;;5.70;99.90;;;;;;4949719;28;20058;-92
2023/03/03 07:57:52;;;;;;;24.67;13.25;;;4.40;99.90;;;;;;4951334;28;20038;-93
2023/03/03 08:00:27;;;;;;;24.45;13.20;;;4.40;99.90;;;;;;4939417;29;20078;-92
2023/03/03 08:03:15;;;;;;;24.15;13.70;;;4.40;99.90;;;;;;4946734;29;20020;-91
2023/03/03 08:05:45;;;;;;;23.85;12.77;;;5.10;99.90;;;;;;4947363;29;20041;-93
2023/03/03 08:08:42;;;;;;;;;;;;;;;;;;;;;
2023/03/03 08:11:20;;;;;;;30.38;14.75;;;4.50;99.90;;;;;;4937214;29;20038;-93
2023/03/03 08:13:45;;;;;;;27.60;13.95;;;5.00;99.90;;;;;;4959604;28;20107;-93
2023/03/03 08:16:14;;;;;;;24.33;14.32;;;4.70;99.90;;;;;;4946182;29;20032;-93
2023/03/03 08:18:52;;;;;;;26.67;13.20;;;4.30;99.90;;;;;;4952591;29;20034;-89
2023/03/03 08:21:22;;;;;;;24.88;13.90;;;5.80;99.90;;;;;;4938407;28;20031;-90
2023/03/03 08:23:52;;;;;;;21.30;12.85;;;4.50;99.90;;;;;;4939851;29;20047;-93
2023/03/03 08:26:22;;;;;;;20.67;12.32;;;4.60;99.90;;;;;;4953213;29;20100;-91
2023/03/03 08:28:48;;;;;;;25.52;13.32;;;4.50;99.90;;;;;;4946096;28;20039;-92
2023/03/03 08:31:14;;;;;;;21.27;11.98;;;4.60;99.90;;;;;;4958047;29;20027;-91
2023/03/03 08:33:39;;;;;;;20.70;11.73;;;5.00;99.90;;;;;;4944723;29;20524;-93
2023/03/03 08:36:06;;;;;;;26.17;13.30;;;4.60;99.90;;;;;;4959347;29;20027;-92
2023/03/03 08:38:36;;;;;;;21.58;12.38;;;4.60;99.90;;;;;;4959292;28;20051;-92
2023/03/03 08:41:08;;;;;;;23.52;12.95;;;4.50;99.90;;;;;;4959749;28;20019;-93
2023/03/03 08:43:34;;;;;;;24.70;13.23;;;4.70;99.90;;;;;;4952572;29;20031;-91
2023/03/03 08:46:04;;;;;;;26.92;13.38;;;4.70;99.90;;;;;;4939467;29;20035;-91
2023/03/03 08:48:35;;;;;;;25.48;14.00;;;4.60;99.90;;;;;;4938894;29;20067;-90
2023/03/03 08:51:07;;;;;;;25.95;14.07;;;5.50;99.90;;;;;;4947035;28;20044;-90
2023/03/03 08:53:35;;;;;;;24.90;13.18;;;4.80;99.90;;;;;;4951276;29;20100;-90
2023/03/03 08:56:06;;;;;;;23.98;13.32;;;6.10;99.90;;;;;;4954120;28;20486;-91
2023/03/03 08:58:34;;;;;;;23.92;11.98;;;4.80;99.90;;;;;;4954784;29;20023;-92
2023/03/03 09:01:09;;;;;;;27.35;12.57;;;5.40;99.90;;;;;;4938702;29;20126;-91
2023/03/03 09:03:34;;;;;;;21.35;10.80;;;4.90;99.90;;;;;;4939239;29;20484;-91
2023/03/03 09:06:12;;;;;;;16.48;10.00;;;4.90;99.90;;;;;;4945207;29;20043;-92
2023/03/03 09:08:41;;;;;;;17.42;10.77;;;5.40;99.90;;;;;;4927022;29;20035;-90
2023/03/03 09:11:12;;;;;;;16.27;9.82;;;4.80;99.90;;;;;;4952961;28;20446;-90
2023/03/03 09:13:37;;;;;;;13.82;9.55;;;4.90;99.90;;;;;;4958281;28;20174;-92
2023/03/03 09:16:14;;;;;;;17.65;8.65;;;5.50;99.90;;;;;;4958781;29;20480;-92
2023/03/03 09:18:41;;;;;;;13.98;8.05;;;4.90;99.90;;;;;;4958310;28;20102;-93
2023/03/03 09:21:22;;;;;;;20.33;9.35;;;4.90;99.90;;;;;;4958569;28;20035;-92
2023/03/03 09:23:55;;;;;;;13.10;8.35;;;5.00;99.90;;;;;;4957982;28;20513;-93
2023/03/03 09:26:29;;;;;;;17.00;8.00;;;5.00;99.90;;;;;;4958535;28;20102;-94
2023/03/03 09:29:00;;;;;;;17.73;8.07;;;5.10;99.90;;;;;;4957401;28;20517;-90
2023/03/03 09:31:59;;;;;;;;;;;5.10;99.90;;;;;;4958213;29;20059;-93
2023/03/03 09:34:53;;;;;;;11.50;8.85;;;6.20;99.90;;;;;;4912152;29;19911;-93
2023/03/03 09:37:44;;;;;;;15.18;9.02;;;5.10;99.90;;;;;;4925430;29;20105;-93
2023/03/03 09:40:59;;;;;;;14.25;8.52;;;5.20;99.90;;;;;;4919581;29;20028;-92
2023/03/03 09:43:55;;;;;;;23.80;8.10;;;5.10;99.90;;;;;;4953623;29;20027;-93
2023/03/03 09:46:38;;;;;;;13.27;7.90;;;5.20;99.90;;;;;;4952507;28;20503;-93
2023/03/03 09:49:21;;;;;;;11.63;6.93;;;5.30;99.90;;;;;;4926914;29;20118;-92
2023/03/03 09:52:05;;;;;;;11.23;7.55;;;5.30;99.90;;;;;;4919795;29;20412;-92
2023/03/03 09:54:57;;;;;;;10.13;6.15;;;5.40;99.90;;;;;;4921141;29;20067;-91
2023/03/03 09:57:30;;;;;;;12.13;6.75;;;5.40;99.90;;;;;;4918805;29;20028;-91
2023/03/03 10:00:30;;;;;;;10.30;6.13;;;5.50;99.90;;;;;;4918191;29;20032;-93
2023/03/03 10:03:49;;;;;;;8.60;6.15;;;5.60;99.90;;;;;;4926848;29;20031;-91
2023/03/03 10:06:27;;;;;;;8.60;6.13;;;5.50;99.90;;;;;;4955964;28;20452;-90
2023/03/03 10:09:35;;;;;;;12.05;6.90;;;5.10;99.90;;;;;;5154062;23;20189;-95
2023/03/03 10:12:31;;;;;;;11.10;5.93;;;5.60;99.90;;;;;;4937628;29;20032;-91
2023/03/03 10:15:25;;;;;;;11.57;6.82;;;5.60;99.90;;;;;;4954999;29;20130;-90
2023/03/03 10:18:51;;;;;;;11.93;6.88;;;5.60;99.90;;;;;;4937785;29;20035;-89
2023/03/03 10:22:19;;;;;;;10.10;6.95;;;5.50;99.90;;;;;;4859898;29;20029;-89
2023/03/03 10:25:19;;;;;;;10.88;6.13;;;5.30;99.90;;;;;;4841197;29;20041;-91
2023/03/03 10:28:09;;;;;;;10.48;7.10;;;5.30;99.90;;;;;;4879276;23;20131;-91
2023/03/03 10:31:05;;;;;;;10.73;7.22;;;5.70;99.90;;;;;;4956326;29;20039;-91
2023/03/03 10:34:07;;;;;;;10.38;6.65;;;5.50;99.90;;;;;;4956689;29;20023;-91
2023/03/03 10:39:33;;;;;;;13.38;7.78;;;5.40;99.90;;;;;;4974494;23;20098;-94
2023/03/03 10:42:41;;;;;;;16.55;7.40;;;5.50;99.90;;;;;;4952191;23;20147;-90
2023/03/03 10:45:37;;;;;;;13.90;7.70;;;5.60;99.90;;;;;;4937011;29;20127;-94
2023/03/03 10:48:34;;;;;;;9.52;6.00;;;5.80;99.90;;;;;;4937528;29;20067;-91
2023/03/03 10:51:30;;;;;;;8.35;5.90;;;5.70;99.90;;;;;;4936910;29;20066;-92
2023/03/03 10:54:17;;;;;;;14.05;7.35;;;5.70;99.90;;;;;;4937067;29;20027;-92
2023/03/03 10:56:57;;;;;;;17.27;10.38;;;5.70;99.90;;;;;;4936997;29;20468;-92
2023/03/03 10:59:38;;;;;;;9.13;6.75;;;5.90;99.90;;;;;;4937398;29;20027;-91
2023/03/03 11:02:16;;;;;;;11.57;5.90;;;5.90;99.90;;;;;;4937120;29;20024;-92
2023/03/03 11:05:08;;;;;;;8.23;5.40;;;5.90;99.90;;;;;;4936621;29;20036;-90
2023/03/03 11:07:39;;;;;;;7.65;5.18;;;5.90;99.90;;;;;;4936876;29;20020;-92
2023/03/03 11:10:43;;;;;;;7.95;5.40;;;6.00;99.90;;;;;;4936695;29;20024;-91
2023/03/03 11:13:36;;;;;;;7.80;4.60;;;6.10;99.90;;;;;;4935627;29;20492;-90
2023/03/03 11:16:15;;;;;;;5.97;4.50;;;6.10;99.90;;;;;;4936353;29;20020;-92
2023/03/03 11:19:10;;;;;;;7.25;4.40;;;6.80;99.90;;;;;;4936615;29;20051;-91
2023/03/03 11:22:10;;;;;;;7.47;4.60;;;6.20;99.90;;;;;;4936505;29;20024;-91
2023/03/03 11:25:02;;;;;;;14.45;4.63;;;6.20;99.90;;;;;;4936071;29;20500;-91
2023/03/03 11:28:02;;;;;;;7.47;4.32;;;6.30;99.90;;;;;;4935772;29;20036;-92
2023/03/03 11:30:40;;;;;;;10.45;4.35;;;6.30;99.90;;;;;;4908240;29;20039;-91
2023/03/03 11:33:25;;;;;;;6.20;4.15;;;6.30;99.90;;;;;;4936985;29;20431;-91
2023/03/03 11:36:19;;;;;;;10.15;4.68;;;6.70;99.90;;;;;;4935811;29;20027;-91
2023/03/03 11:39:17;;;;;;;4.28;3.80;;;6.30;99.90;;;;;;4936660;29;20032;-91
2023/03/03 11:41:57;;;;;;;8.52;3.88;;;6.40;99.90;;;;;;4936378;29;20048;-91
2023/03/03 11:45:16;;;;;;;6.05;3.70;;;6.40;99.90;;;;;;4936287;29;20027;-90
2023/03/03 11:47:59;;;;;;;5.28;3.88;;;6.50;99.90;;;;;;4936605;29;20040;-91
2023/03/03 11:50:51;;;;;;;7.55;3.33;;;6.70;99.90;;;;;;4936381;29;20035;-93
2023/03/03 11:53:44;;;;;;;3.38;2.50;;;6.90;99.90;;;;;;4936669;29;20024;-91
2023/03/03 11:56:48;;;;;;;4.97;2.53;;;7.00;99.90;;;;;;4937293;29;20027;-90
2023/03/03 11:59:31;;;;;;;6.93;2.40;;;7.00;99.90;;;;;;4936645;29;20091;-91
2023/03/03 12:02:02;;;;;;;4.65;2.15;;;7.10;99.90;;;;;;4936151;29;20460;-91
2023/03/03 12:04:33;;;;;;;;;;;7.20;99.90;;;;;;4937038;29;20034;-91
2023/03/03 12:07:32;;;;;;;6.88;2.67;;;7.20;99.90;;;;;;4936020;29;19911;-91
2023/03/03 12:10:27;;;;;;;4.60;1.80;;;7.00;99.90;;;;;;4935948;29;20486;-91
2023/03/03 12:13:10;;;;;;;3.38;1.40;;;7.40;99.90;;;;;;4903312;29;20090;-92
2023/03/03 12:15:50;;;;;;;3.28;1.85;;;7.40;99.90;;;;;;4936652;29;20111;-91
2023/03/03 12:18:38;;;;;;;6.03;1.95;;;7.30;99.90;;;;;;4935180;29;20039;-91
2023/03/03 12:21:31;;;;;;;5.53;1.40;;;7.40;99.90;;;;;;4936522;29;20036;-91
2023/03/03 12:24:28;;;;;;;1.98;1.25;;;7.40;99.90;;;;;;4936150;29;20020;-92
2023/03/03 12:27:31;;;;;;;3.35;1.38;;;7.40;99.90;;;;;;4935884;29;20116;-91
2023/03/03 12:30:28;;;;;;;6.53;2.10;;;7.50;99.90;;;;;;4935733;29;20175;-91
2023/03/03 12:33:27;;;;;;;;;;;;;;;;;;;;;
2023/03/03 12:36:14;;;;;;;7.05;1.70;;;7.40;99.90;;;;;;4931879;29;20047;-92
2023/03/03 12:39:14;;;;;;;4.80;2.03;;;7.30;99.90;;;;;;4935873;29;20028;-92
2023/03/03 12:42:06;;;;;;;3.08;1.70;;;6.90;99.90;;;;;;4915805;29;20089;-91
2023/03/03 12:45:09;;;;;;;5.65;2.47;;;7.40;99.90;;;;;;4936596;29;20111;-92
2023/03/03 12:47:43;;;;;;;6.20;2.28;;;7.50;99.90;;;;;;4939539;29;20106;-91
2023/03/03 12:50:09;;;;;;;6.53;1.83;;;8.00;99.90;;;;;;4939437;29;20032;-91
2023/03/03 12:53:12;;;;;;;3.95;1.48;;;8.20;99.90;;;;;;4939650;29;20027;-91
2023/03/03 12:55:51;;;;;;;3.60;1.65;;;7.60;99.90;;;;;;4939302;29;20020;-92
2023/03/03 12:58:43;;;;;;;5.97;1.50;;;9.20;99.90;;;;;;4939649;29;20052;-90
2023/03/03 13:01:37;;;;;;;2.42;1.25;;;7.90;99.90;;;;;;4939622;29;20027;-91
2023/03/03 13:04:22;;;;;;;2.30;1.45;;;7.90;99.90;;;;;;4939289;29;20034;-91
2023/03/03 13:06:57;;;;;;;4.63;1.75;;;8.50;99.90;;;;;;4939366;29;20060;-91
2023/03/03 13:09:47;;;;;;;10.70;1.67;;;8.60;99.90;;;;;;4936908;29;20071;-91
2023/03/03 13:12:50;;;;;;;13.07;1.83;;;8.00;99.90;;;;;;4939192;29;20083;-92
2023/03/03 13:15:39;;;;;;;2.40;1.27;;;7.90;99.90;;;;;;4939568;29;20039;-91
2023/03/03 13:18:19;;;;;;;3.47;1.50;;;8.20;99.90;;;;;;4939774;29;20051;-91
2023/03/03 13:21:04;;;;;;;5.87;1.53;;;8.30;99.90;;;;;;4939022;29;20028;-91
2023/03/03 13:24:00;;;;;;;2.97;1.63;;;8.00;99.90;;;;;;4939281;29;20270;-91
2023/03/03 13:26:32;;;;;;;3.15;1.08;;;8.00;99.90;;;;;;4939034;29;20032;-91
2023/03/03 13:29:35;;;;;;;5.35;1.92;;;8.00;99.90;;;;;;4939181;29;20038;-91
2023/03/03 13:32:04;;;;;;;3.53;1.25;;;8.00;99.90;;;;;;4926428;29;20488;-91
2023/03/03 13:34:58;;;;;;;5.75;1.55;;;7.90;99.90;;;;;;4939105;29;20036;-90
2023/03/03 13:37:31;;;;;;;4.18;1.20;;;7.80;99.90;;;;;;4939311;29;20031;-91
2023/03/03 13:40:28;;;;;;;2.10;1.23;;;7.80;99.90;;;;;;4938356;29;20024;-91
2023/03/03 13:42:59;;;;;;;2.78;1.13;;;7.90;99.90;;;;;;4936318;29;20043;-93
2023/03/03 13:45:58;;;;;;;5.30;1.60;;;8.30;99.90;;;;;;4939751;29;20475;-94